sensor_id;sensor_type;location;lat;lon;timestamp;pressure;altitude;pressure_sealevel;temperature;humidity
16120;BME280;12670;53.502;10.252;2023-04-16T00:02:25;101494.09;;;8.99;100.00
16120;BME280;12670;53.502;10.252;2023-04-16T00:05:28;101490.53;;;9.00;100.00
16120;BME280;12670;53.502;10.252;2023-04-16T00:08:32;101491.22;;;9.08;100.00
16120;BME280;12670;53.502;10.252;2023-04-16T00:11:36;101487.66;;;9.11;100.00
16120;BME280;12670;53.502;10.252;2023-04-16T00:14:38;101480.94;;;8.96;100.00
16120;BME280;12670;53.502;10.252;2023-04-16T00:17:41;101495.78;;;9.03;100.00
16120;BME280;12670;53.502;10.252;2023-04-16T00:20:44;101485.81;;;9.13;100.00
16120;BME280;12670;53.502;10.252;2023-04-16T00:23:48;101484.13;;;9.10;100.00
16120;BME280;12670;53.502;10.252;2023-04-16T00:26:51;101484.34;;;9.01;100.00
16120;BME280;12670;53.502;10.252;2023-04-16T00:29:53;101498.34;;;9.06;100.00
16120;BME280;12670;53.502;10.252;2023-04-16T00:32:56;101494.16;;;8.96;100.00
16120;BME280;12670;53.502;10.252;2023-04-16T00:35:59;101503.44;;;8.76;100.00
16120;BME280;12670;53.502;10.252;2023-04-16T00:39:03;101499.09;;;8.72;100.00
16120;BME280;12670;53.502;10.252;2023-04-16T00:42:06;101489.38;;;8.74;100.00
16120;BME280;12670;53.502;10.252;2023-04-16T00:45:10;101501.59;;;8.78;100.00
16120;BME280;12670;53.502;10.252;2023-04-16T00:48:12;101497.72;;;8.54;100.00
16120;BME280;12670;53.502;10.252;2023-04-16T00:51:17;101501.06;;;8.64;100.00
16120;BME280;12670;53.502;10.252;2023-04-16T00:54:21;101492.66;;;8.86;100.00
16120;BME280;12670;53.502;10.252;2023-04-16T00:57:24;101486.53;;;8.82;100.00
16120;BME280;12670;53.502;10.252;2023-04-16T01:00:27;101488.28;;;8.83;100.00
16120;BME280;12670;53.502;10.252;2023-04-16T01:03:36;101482.13;;;8.82;100.00
16120;BME280;12670;53.502;10.252;2023-04-16T01:06:40;101488.03;;;8.94;100.00
16120;BME280;12670;53.502;10.252;2023-04-16T01:09:44;101489.38;;;8.74;100.00
16120;BME280;12670;53.502;10.252;2023-04-16T01:12:46;101486.44;;;8.87;100.00
16120;BME280;12670;53.502;10.252;2023-04-16T01:15:49;101489.91;;;8.89;100.00
16120;BME280;12670;53.502;10.252;2023-04-16T01:18:52;101501.09;;;8.63;100.00
16120;BME280;12670;53.502;10.252;2023-04-16T01:21:56;101487.38;;;8.44;100.00
16120;BME280;12670;53.502;10.252;2023-04-16T01:24:58;101492.88;;;8.33;100.00
16120;BME280;12670;53.502;10.252;2023-04-16T01:28:01;101492.47;;;8.53;100.00
16120;BME280;12670;53.502;10.252;2023-04-16T01:31:04;101497.81;;;8.50;100.00
16120;BME280;12670;53.502;10.252;2023-04-16T01:34:06;101500.16;;;8.65;100.00
16120;BME280;12670;53.502;10.252;2023-04-16T01:37:11;101511.94;;;8.49;100.00
16120;BME280;12670;53.502;10.252;2023-04-16T01:40:14;101514.47;;;8.55;100.00
16120;BME280;12670;53.502;10.252;2023-04-16T01:43:16;101510.59;;;8.71;100.00
16120;BME280;12670;53.502;10.252;2023-04-16T01:46:22;101515.75;;;8.77;100.00
16120;BME280;12670;53.502;10.252;2023-04-16T01:49:26;101517.63;;;8.72;100.00
16120;BME280;12670;53.502;10.252;2023-04-16T01:52:31;101515.00;;;8.71;100.00
16120;BME280;12670;53.502;10.252;2023-04-16T01:55:34;101517.44;;;8.81;100.00
16120;BME280;12670;53.502;10.252;2023-04-16T01:58:37;101519.34;;;8.73;100.00
16120;BME280;12670;53.502;10.252;2023-04-16T02:01:40;101524.56;;;8.78;100.00
16120;BME280;12670;53.502;10.252;2023-04-16T02:04:44;101520.84;;;8.87;100.00
16120;BME280;12670;53.502;10.252;2023-04-16T02:07:49;101530.34;;;8.95;100.00
16120;BME280;12670;53.502;10.252;2023-04-16T02:10:52;101529.84;;;8.79;100.00
16120;BME280;12670;53.502;10.252;2023-04-16T02:13:54;101529.72;;;8.84;100.00
16120;BME280;12670;53.502;10.252;2023-04-16T02:16:57;101532.59;;;8.73;100.00
16120;BME280;12670;53.502;10.252;2023-04-16T02:20:00;101529.88;;;8.76;100.00
16120;BME280;12670;53.502;10.252;2023-04-16T02:23:07;101533.16;;;8.88;100.00
16120;BME280;12670;53.502;10.252;2023-04-16T02:26:10;101530.19;;;9.03;100.00
16120;BME280;12670;53.502;10.252;2023-04-16T02:29:13;101536.41;;;8.60;100.00
16120;BME280;12670;53.502;10.252;2023-04-16T02:32:17;101535.78;;;8.89;100.00
16120;BME280;12670;53.502;10.252;2023-04-16T02:35:19;101545.75;;;8.76;100.00
16120;BME280;12670;53.502;10.252;2023-04-16T02:38:24;101543.94;;;8.78;100.00
16120;BME280;12670;53.502;10.252;2023-04-16T02:41:26;101547.22;;;8.90;100.00
16120;BME280;12670;53.502;10.252;2023-04-16T02:44:29;101547.13;;;8.94;100.00
16120;BME280;12670;53.502;10.252;2023-04-16T02:47:31;101549.66;;;9.00;100.00
16120;BME280;12670;53.502;10.252;2023-04-16T02:50:34;101548.78;;;9.00;100.00
16120;BME280;12670;53.502;10.252;2023-04-16T02:53:38;101550.75;;;8.90;100.00
16120;BME280;12670;53.502;10.252;2023-04-16T02:56:41;101547.75;;;9.05;100.00
16120;BME280;12670;53.502;10.252;2023-04-16T02:59:44;101550.50;;;9.01;100.00
16120;BME280;12670;53.502;10.252;2023-04-16T03:02:47;101550.50;;;9.01;100.00
16120;BME280;12670;53.502;10.252;2023-04-16T03:05:49;101552.34;;;8.99;100.00
16120;BME280;12670;53.502;10.252;2023-04-16T03:08:53;101559.34;;;9.00;100.00
16120;BME280;12670;53.502;10.252;2023-04-16T03:11:56;101560.19;;;9.02;100.00
16120;BME280;12670;53.502;10.252;2023-04-16T03:14:59;101557.53;;;9.02;100.00
16120;BME280;12670;53.502;10.252;2023-04-16T03:18:02;101559.19;;;9.07;100.00
16120;BME280;12670;53.502;10.252;2023-04-16T03:21:04;101560.97;;;9.07;100.00
16120;BME280;12670;53.502;10.252;2023-04-16T03:24:08;101559.03;;;9.15;100.00
16120;BME280;12670;53.502;10.252;2023-04-16T03:27:11;101559.16;;;9.09;100.00
16120;BME280;12670;53.502;10.252;2023-04-16T03:30:14;101561.97;;;9.03;100.00
16120;BME280;12670;53.502;10.252;2023-04-16T03:33:17;101567.84;;;9.14;100.00
16120;BME280;12670;53.502;10.252;2023-04-16T03:36:20;101570.88;;;8.99;100.00
16120;BME280;12670;53.502;10.252;2023-04-16T03:39:24;101558.81;;;9.24;100.00
16120;BME280;12670;53.502;10.252;2023-04-16T03:42:27;101562.06;;;9.35;100.00
16120;BME280;12670;53.502;10.252;2023-04-16T03:45:29;101563.66;;;9.43;100.00
16120;BME280;12670;53.502;10.252;2023-04-16T03:48:32;101573.53;;;9.36;100.00
16120;BME280;12670;53.502;10.252;2023-04-16T03:51:35;101576.28;;;9.31;100.00
16120;BME280;12670;53.502;10.252;2023-04-16T03:54:39;101567.69;;;9.22;100.00
16120;BME280;12670;53.502;10.252;2023-04-16T03:57:41;101570.13;;;9.31;100.00
16120;BME280;12670;53.502;10.252;2023-04-16T04:00:44;101574.38;;;9.38;100.00
16120;BME280;12670;53.502;10.252;2023-04-16T04:03:47;101575.41;;;9.32;100.00
16120;BME280;12670;53.502;10.252;2023-04-16T04:06:50;101573.56;;;9.34;100.00
16120;BME280;12670;53.502;10.252;2023-04-16T04:09:54;101577.00;;;9.40;100.00
16120;BME280;12670;53.502;10.252;2023-04-16T04:12:56;101568.03;;;9.45;100.00
16120;BME280;12670;53.502;10.252;2023-04-16T04:15:59;101573.91;;;9.58;100.00
16120;BME280;12670;53.502;10.252;2023-04-16T04:19:02;101580.00;;;9.61;100.00
16120;BME280;12670;53.502;10.252;2023-04-16T04:22:05;101587.97;;;9.60;100.00
16120;BME280;12670;53.502;10.252;2023-04-16T04:25:09;101586.91;;;9.30;100.00
16120;BME280;12670;53.502;10.252;2023-04-16T04:28:12;101593.47;;;9.52;100.00
16120;BME280;12670;53.502;10.252;2023-04-16T04:31:14;101581.84;;;9.58;100.00
16120;BME280;12670;53.502;10.252;2023-04-16T04:34:17;101602.75;;;9.70;100.00
16120;BME280;12670;53.502;10.252;2023-04-16T04:37:20;101596.63;;;9.68;100.00
16120;BME280;12670;53.502;10.252;2023-04-16T04:40:24;101603.97;;;9.57;100.00
16120;BME280;12670;53.502;10.252;2023-04-16T04:43:27;101603.81;;;9.63;100.00
16120;BME280;12670;53.502;10.252;2023-04-16T04:46:29;101601.91;;;9.68;100.00
16120;BME280;12670;53.502;10.252;2023-04-16T04:49:32;101593.56;;;9.48;100.00
16120;BME280;12670;53.502;10.252;2023-04-16T04:52:35;101600.31;;;9.61;100.00
16120;BME280;12670;53.502;10.252;2023-04-16T04:55:39;101605.84;;;9.52;100.00
16120;BME280;12670;53.502;10.252;2023-04-16T04:58:41;101609.44;;;9.48;100.00
16120;BME280;12670;53.502;10.252;2023-04-16T05:01:44;101617.25;;;9.54;100.00
16120;BME280;12670;53.502;10.252;2023-04-16T05:04:47;101613.38;;;9.69;100.00
16120;BME280;12670;53.502;10.252;2023-04-16T05:07:49;101616.03;;;9.69;100.00
16120;BME280;12670;53.502;10.252;2023-04-16T05:10:53;101616.00;;;9.70;100.00
16120;BME280;12670;53.502;10.252;2023-04-16T05:13:56;101622.41;;;9.61;100.00
16120;BME280;12670;53.502;10.252;2023-04-16T05:16:59;101616.81;;;9.74;100.00
16120;BME280;12670;53.502;10.252;2023-04-16T05:20:02;101619.16;;;9.86;100.00
16120;BME280;12670;53.502;10.252;2023-04-16T05:23:05;101624.75;;;9.74;100.00
16120;BME280;12670;53.502;10.252;2023-04-16T05:26:09;101622.09;;;9.74;100.00
16120;BME280;12670;53.502;10.252;2023-04-16T05:29:12;101629.91;;;9.78;100.00
16120;BME280;12670;53.502;10.252;2023-04-16T05:32:14;101636.84;;;9.85;100.00
16120;BME280;12670;53.502;10.252;2023-04-16T05:35:17;101641.16;;;9.88;100.00
16120;BME280;12670;53.502;10.252;2023-04-16T05:38:20;101637.97;;;9.75;100.00
16120;BME280;12670;53.502;10.252;2023-04-16T05:41:24;101640.34;;;9.49;100.00
16120;BME280;12670;53.502;10.252;2023-04-16T05:44:27;101644.22;;;9.71;100.00
16120;BME280;12670;53.502;10.252;2023-04-16T05:47:29;101660.69;;;9.84;100.00
16120;BME280;12670;53.502;10.252;2023-04-16T05:50:32;101651.16;;;9.77;100.00
16120;BME280;12670;53.502;10.252;2023-04-16T05:53:35;101654.22;;;9.96;100.00
16120;BME280;12670;53.502;10.252;2023-04-16T05:56:39;101658.50;;;10.01;100.00
16120;BME280;12670;53.502;10.252;2023-04-16T05:59:42;101667.25;;;9.69;100.00
16120;BME280;12670;53.502;10.252;2023-04-16T06:02:44;101664.97;;;9.91;100.00
16120;BME280;12670;53.502;10.252;2023-04-16T06:05:47;101667.38;;;10.00;100.00
16120;BME280;12670;53.502;10.252;2023-04-16T06:08:50;101671.63;;;10.07;100.00
16120;BME280;12670;53.502;10.252;2023-04-16T06:11:54;101661.72;;;10.14;100.00
16120;BME280;12670;53.502;10.252;2023-04-16T06:14:56;101669.66;;;9.80;100.00
16120;BME280;12670;53.502;10.252;2023-04-16T06:17:59;101672.69;;;10.00;100.00
16120;BME280;12670;53.502;10.252;2023-04-16T06:21:03;101667.88;;;10.16;100.00
16120;BME280;12670;53.502;10.252;2023-04-16T06:24:05;101670.47;;;10.18;100.00
16120;BME280;12670;53.502;10.252;2023-04-16T06:27:09;101673.34;;;10.10;100.00
16120;BME280;12670;53.502;10.252;2023-04-16T06:30:13;101676.25;;;10.35;100.00
16120;BME280;12670;53.502;10.252;2023-04-16T06:33:16;101686.06;;;10.33;100.00
16120;BME280;12670;53.502;10.252;2023-04-16T06:36:18;101679.72;;;10.38;100.00
16120;BME280;12670;53.502;10.252;2023-04-16T06:39:21;101683.69;;;10.19;100.00
16120;BME280;12670;53.502;10.252;2023-04-16T06:42:25;101680.53;;;10.40;100.00
16120;BME280;12670;53.502;10.252;2023-04-16T06:45:28;101689.38;;;10.41;100.00
16120;BME280;12670;53.502;10.252;2023-04-16T06:48:31;101699.69;;;10.16;100.00
16120;BME280;12670;53.502;10.252;2023-04-16T06:51:33;101693.44;;;10.19;100.00
16120;BME280;12670;53.502;10.252;2023-04-16T06:54:36;101694.03;;;10.31;100.00
16120;BME280;12670;53.502;10.252;2023-04-16T06:57:40;101700.22;;;10.32;100.00
16120;BME280;12670;53.502;10.252;2023-04-16T07:00:43;101695.03;;;10.27;100.00
16120;BME280;12670;53.502;10.252;2023-04-16T07:03:46;101699.25;;;10.34;100.00
16120;BME280;12670;53.502;10.252;2023-04-16T07:06:49;101696.50;;;10.39;100.00
16120;BME280;12670;53.502;10.252;2023-04-16T07:09:52;101701.81;;;10.37;100.00
16120;BME280;12670;53.502;10.252;2023-04-16T07:12:56;101697.13;;;10.49;100.00
16120;BME280;12670;53.502;10.252;2023-04-16T07:15:59;101696.38;;;10.44;100.00
16120;BME280;12670;53.502;10.252;2023-04-16T07:19:02;101701.69;;;10.44;100.00
16120;BME280;12670;53.502;10.252;2023-04-16T07:22:04;101705.94;;;10.51;100.00
16120;BME280;12670;53.502;10.252;2023-04-16T07:25:08;101705.13;;;10.47;100.00
16120;BME280;12670;53.502;10.252;2023-04-16T07:28:12;101709.59;;;10.79;100.00
16120;BME280;12670;53.502;10.252;2023-04-16T07:31:17;101719.34;;;10.77;100.00
16120;BME280;12670;53.502;10.252;2023-04-16T07:34:20;101722.81;;;10.47;100.00
16120;BME280;12670;53.502;10.252;2023-04-16T07:37:23;101726.84;;;10.63;100.00
16120;BME280;12670;53.502;10.252;2023-04-16T07:40:25;101727.66;;;10.65;100.00
16120;BME280;12670;53.502;10.252;2023-04-16T07:43:29;101723.59;;;10.52;100.00
16120;BME280;12670;53.502;10.252;2023-04-16T07:46:32;101736.56;;;10.62;100.00
16120;BME280;12670;53.502;10.252;2023-04-16T07:49:47;101734.09;;;10.55;100.00
16120;BME280;12670;53.502;10.252;2023-04-16T07:52:50;101735.94;;;10.53;100.00
16120;BME280;12670;53.502;10.252;2023-04-16T07:55:52;101740.59;;;10.77;100.00
16120;BME280;12670;53.502;10.252;2023-04-16T07:58:56;101739.31;;;10.92;100.00
16120;BME280;12670;53.502;10.252;2023-04-16T08:02:15;101744.41;;;11.00;100.00
16120;BME280;12670;53.502;10.252;2023-04-16T08:05:18;101741.25;;;11.18;100.00
16120;BME280;12670;53.502;10.252;2023-04-16T08:08:21;101740.31;;;10.88;100.00
16120;BME280;12670;53.502;10.252;2023-04-16T08:11:23;101746.59;;;10.85;100.00
16120;BME280;12670;53.502;10.252;2023-04-16T08:14:28;101749.16;;;10.88;100.00
16120;BME280;12670;53.502;10.252;2023-04-16T08:17:31;101743.94;;;10.85;100.00
16120;BME280;12670;53.502;10.252;2023-04-16T08:20:34;101756.28;;;10.86;100.00
16120;BME280;12670;53.502;10.252;2023-04-16T08:23:37;101753.00;;;11.09;100.00
16120;BME280;12670;53.502;10.252;2023-04-16T08:26:40;101760.00;;;11.12;100.00
16120;BME280;12670;53.502;10.252;2023-04-16T08:29:44;101770.81;;;11.06;100.00
16120;BME280;12670;53.502;10.252;2023-04-16T08:32:46;101776.88;;;11.11;100.00
16120;BME280;12670;53.502;10.252;2023-04-16T08:35:50;101777.25;;;10.97;100.00
16120;BME280;12670;53.502;10.252;2023-04-16T08:38:53;101778.13;;;10.96;100.00
16120;BME280;12670;53.502;10.252;2023-04-16T08:41:57;101782.25;;;11.08;100.00
16120;BME280;12670;53.502;10.252;2023-04-16T08:45:05;101787.19;;;11.21;100.00
16120;BME280;12670;53.502;10.252;2023-04-16T08:48:10;101782.28;;;11.39;100.00
16120;BME280;12670;53.502;10.252;2023-04-16T08:51:13;101786.56;;;11.44;100.00
16120;BME280;12670;53.502;10.252;2023-04-16T08:54:33;101787.41;;;11.45;99.04
16120;BME280;12670;53.502;10.252;2023-04-16T08:57:47;101791.88;;;11.44;99.38
16120;BME280;12670;53.502;10.252;2023-04-16T09:00:51;101793.50;;;11.48;98.96
16120;BME280;12670;53.502;10.252;2023-04-16T09:03:55;101791.81;;;11.46;99.68
16120;BME280;12670;53.502;10.252;2023-04-16T09:06:58;101792.72;;;11.45;99.26
16120;BME280;12670;53.502;10.252;2023-04-16T09:10:00;101790.63;;;11.56;98.34
16120;BME280;12670;53.502;10.252;2023-04-16T09:13:04;101796.91;;;11.54;98.48
16120;BME280;12670;53.502;10.252;2023-04-16T09:16:10;101800.03;;;11.37;98.90
16120;BME280;12670;53.502;10.252;2023-04-16T09:19:14;101804.31;;;11.42;98.93
16120;BME280;12670;53.502;10.252;2023-04-16T09:22:17;101801.00;;;11.34;100.00
16120;BME280;12670;53.502;10.252;2023-04-16T09:25:20;101808.91;;;11.36;100.00
16120;BME280;12670;53.502;10.252;2023-04-16T09:28:39;101814.00;;;11.45;99.95
16120;BME280;12670;53.502;10.252;2023-04-16T09:32:00;101818.66;;;11.66;99.13
16120;BME280;12670;53.502;10.252;2023-04-16T09:35:04;101821.22;;;11.40;99.90
16120;BME280;12670;53.502;10.252;2023-04-16T09:38:06;101824.34;;;11.54;100.00
16120;BME280;12670;53.502;10.252;2023-04-16T09:41:09;101823.47;;;11.54;99.03
16120;BME280;12670;53.502;10.252;2023-04-16T09:44:12;101823.75;;;11.44;99.56
16120;BME280;12670;53.502;10.252;2023-04-16T09:47:16;101830.00;;;11.43;99.64
16120;BME280;12670;53.502;10.252;2023-04-16T09:50:19;101828.66;;;11.58;99.41
16120;BME280;12670;53.502;10.252;2023-04-16T09:53:25;101839.41;;;11.54;99.36
16120;BME280;12670;53.502;10.252;2023-04-16T09:56:28;101841.34;;;11.48;100.00
16120;BME280;12670;53.502;10.252;2023-04-16T09:59:34;101838.03;;;11.40;99.87
16120;BME280;12670;53.502;10.252;2023-04-16T10:02:40;101838.44;;;11.25;100.00
16120;BME280;12670;53.502;10.252;2023-04-16T10:05:43;101844.94;;;11.15;100.00
16120;BME280;12670;53.502;10.252;2023-04-16T10:08:46;101841.44;;;11.45;100.00
16120;BME280;12670;53.502;10.252;2023-04-16T10:11:50;101843.13;;;11.48;100.00
16120;BME280;12670;53.502;10.252;2023-04-16T10:14:53;101848.59;;;11.74;99.28
16120;BME280;12670;53.502;10.252;2023-04-16T10:17:57;101855.13;;;11.63;98.90
16120;BME280;12670;53.502;10.252;2023-04-16T10:21:01;101848.75;;;11.68;97.51
16120;BME280;12670;53.502;10.252;2023-04-16T10:24:04;101851.47;;;11.67;98.79
16120;BME280;12670;53.502;10.252;2023-04-16T10:27:08;101855.13;;;11.63;98.53
16120;BME280;12670;53.502;10.252;2023-04-16T10:30:12;101856.28;;;11.85;95.95
16120;BME280;12670;53.502;10.252;2023-04-16T10:33:19;101855.22;;;11.91;94.48
16120;BME280;12670;53.502;10.252;2023-04-16T10:36:23;101860.56;;;11.89;94.78
16120;BME280;12670;53.502;10.252;2023-04-16T10:39:27;101866.91;;;11.85;95.11
16120;BME280;12670;53.502;10.252;2023-04-16T10:42:30;101866.69;;;11.60;94.56
16120;BME280;12670;53.502;10.252;2023-04-16T10:45:36;101860.00;;;11.47;97.75
16120;BME280;12670;53.502;10.252;2023-04-16T10:48:42;101864.19;;;11.56;97.15
16120;BME280;12670;53.502;10.252;2023-04-16T10:51:52;101873.16;;;11.52;97.79
16120;BME280;12670;53.502;10.252;2023-04-16T10:54:58;101873.81;;;11.60;97.33
16120;BME280;12670;53.502;10.252;2023-04-16T10:58:01;101876.56;;;11.57;98.63
16120;BME280;12670;53.502;10.252;2023-04-16T11:01:06;101875.88;;;11.16;100.00
16120;BME280;12670;53.502;10.252;2023-04-16T11:04:44;101882.94;;;11.17;100.00
16120;BME280;12670;53.502;10.252;2023-04-16T11:07:47;101879.69;;;11.06;100.00
16120;BME280;12670;53.502;10.252;2023-04-16T11:10:50;101884.72;;;11.16;100.00
16120;BME280;12670;53.502;10.252;2023-04-16T11:13:54;101882.13;;;11.13;100.00
16120;BME280;12670;53.502;10.252;2023-04-16T11:16:57;101887.66;;;11.06;100.00
16120;BME280;12670;53.502;10.252;2023-04-16T11:20:02;101883.53;;;10.94;100.00
16120;BME280;12670;53.502;10.252;2023-04-16T11:23:19;101885.38;;;11.26;100.00
16120;BME280;12670;53.502;10.252;2023-04-16T11:26:23;101880.22;;;11.20;100.00
16120;BME280;12670;53.502;10.252;2023-04-16T11:29:26;101890.88;;;11.18;100.00
16120;BME280;12670;53.502;10.252;2023-04-16T11:32:30;101885.97;;;11.03;100.00
16120;BME280;12670;53.502;10.252;2023-04-16T11:35:35;101885.97;;;11.02;100.00
16120;BME280;12670;53.502;10.252;2023-04-16T11:38:38;101887.34;;;11.18;100.00
16120;BME280;12670;53.502;10.252;2023-04-16T11:41:43;101891.41;;;11.31;100.00
16120;BME280;12670;53.502;10.252;2023-04-16T11:44:50;101887.09;;;11.60;100.00
16120;BME280;12670;53.502;10.252;2023-04-16T11:47:53;101888.59;;;11.70;100.00
16120;BME280;12670;53.502;10.252;2023-04-16T11:50:59;101887.06;;;11.61;100.00
16120;BME280;12670;53.502;10.252;2023-04-16T11:54:02;101892.41;;;11.60;100.00
16120;BME280;12670;53.502;10.252;2023-04-16T11:57:05;101895.41;;;11.80;100.00
16120;BME280;12670;53.502;10.252;2023-04-16T12:00:08;101897.88;;;11.55;100.00
16120;BME280;12670;53.502;10.252;2023-04-16T12:03:14;101898.94;;;11.48;100.00
16120;BME280;12670;53.502;10.252;2023-04-16T12:06:18;101897.31;;;11.42;100.00
16120;BME280;12670;53.502;10.252;2023-04-16T12:09:25;101900.06;;;11.39;100.00
16120;BME280;12670;53.502;10.252;2023-04-16T12:12:29;101902.38;;;11.52;100.00
16120;BME280;12670;53.502;10.252;2023-04-16T12:15:42;101903.63;;;11.71;100.00
16120;BME280;12670;53.502;10.252;2023-04-16T12:18:58;101916.59;;;11.83;100.00
16120;BME280;12670;53.502;10.252;2023-04-16T12:22:02;101908.00;;;11.72;100.00
16120;BME280;12670;53.502;10.252;2023-04-16T12:25:07;101910.03;;;11.64;100.00
16120;BME280;12670;53.502;10.252;2023-04-16T12:28:12;101911.94;;;11.59;100.00
16120;BME280;12670;53.502;10.252;2023-04-16T12:31:16;101911.81;;;11.63;100.00
16120;BME280;12670;53.502;10.252;2023-04-16T12:34:21;101915.81;;;11.78;100.00
16120;BME280;12670;53.502;10.252;2023-04-16T12:37:45;101913.34;;;11.72;100.00
16120;BME280;12670;53.502;10.252;2023-04-16T12:40:48;101919.19;;;11.86;100.00
16120;BME280;12670;53.502;10.252;2023-04-16T12:43:51;101915.00;;;11.76;99.52
16120;BME280;12670;53.502;10.252;2023-04-16T12:46:54;101914.84;;;11.82;100.00
16120;BME280;12670;53.502;10.252;2023-04-16T12:49:57;101918.66;;;11.72;98.97
16120;BME280;12670;53.502;10.252;2023-04-16T12:53:01;101921.25;;;11.75;99.42
16120;BME280;12670;53.502;10.252;2023-04-16T12:56:04;101927.31;;;11.80;98.83
16120;BME280;12670;53.502;10.252;2023-04-16T12:59:06;101924.06;;;11.69;98.23
16120;BME280;12670;53.502;10.252;2023-04-16T13:02:10;101924.94;;;11.69;98.66
16120;BME280;12670;53.502;10.252;2023-04-16T13:05:14;101930.75;;;11.51;99.92
16120;BME280;12670;53.502;10.252;2023-04-16T13:08:20;101931.69;;;11.48;98.23
16120;BME280;12670;53.502;10.252;2023-04-16T13:11:23;101928.38;;;11.40;98.99
16120;BME280;12670;53.502;10.252;2023-04-16T13:14:26;101936.81;;;11.56;97.64
16120;BME280;12670;53.502;10.252;2023-04-16T13:17:29;101937.75;;;11.54;96.64
16120;BME280;12670;53.502;10.252;2023-04-16T13:20:32;101930.75;;;11.85;98.35
16120;BME280;12670;53.502;10.252;2023-04-16T13:23:36;101927.47;;;11.74;96.59
16120;BME280;12670;53.502;10.252;2023-04-16T13:26:38;101937.75;;;11.55;97.49
16120;BME280;12670;53.502;10.252;2023-04-16T13:29:42;101931.63;;;11.52;97.50
16120;BME280;12670;53.502;10.252;2023-04-16T13:32:45;101934.00;;;11.62;98.42
16120;BME280;12670;53.502;10.252;2023-04-16T13:35:48;101930.81;;;11.82;97.49
16120;BME280;12670;53.502;10.252;2023-04-16T13:38:52;101945.31;;;12.03;97.01
16120;BME280;12670;53.502;10.252;2023-04-16T13:41:55;101942.66;;;12.03;97.12
16120;BME280;12670;53.502;10.252;2023-04-16T13:44:58;101943.06;;;12.19;96.70
16120;BME280;12670;53.502;10.252;2023-04-16T13:48:01;101944.34;;;12.06;95.83
16120;BME280;12670;53.502;10.252;2023-04-16T13:51:05;101944.63;;;11.95;97.78
16120;BME280;12670;53.502;10.252;2023-04-16T13:54:10;101937.63;;;11.92;98.26
16120;BME280;12670;53.502;10.252;2023-04-16T13:57:12;101935.72;;;11.97;96.79
16120;BME280;12670;53.502;10.252;2023-04-16T14:00:16;101937.16;;;12.08;97.22
16120;BME280;12670;53.502;10.252;2023-04-16T14:03:19;101936.22;;;12.10;95.91
16120;BME280;12670;53.502;10.252;2023-04-16T14:06:22;101932.81;;;12.05;95.93
16120;BME280;12670;53.502;10.252;2023-04-16T14:09:26;101934.94;;;12.23;96.32
16120;BME280;12670;53.502;10.252;2023-04-16T14:12:28;101922.56;;;12.22;96.95
16120;BME280;12670;53.502;10.252;2023-04-16T14:15:31;101931.25;;;11.98;96.03
16120;BME280;12670;53.502;10.252;2023-04-16T14:18:34;101931.78;;;12.11;94.68
16120;BME280;12670;53.502;10.252;2023-04-16T14:21:41;101929.06;;;12.12;94.92
16120;BME280;12670;53.502;10.252;2023-04-16T14:24:45;101933.44;;;12.15;94.73
16120;BME280;12670;53.502;10.252;2023-04-16T14:27:48;101937.72;;;12.19;94.24
16120;BME280;12670;53.502;10.252;2023-04-16T14:30:51;101937.66;;;12.22;94.12
16120;BME280;12670;53.502;10.252;2023-04-16T14:33:54;101931.34;;;12.26;96.52
16120;BME280;12670;53.502;10.252;2023-04-16T14:36:56;101936.56;;;12.29;96.17
16120;BME280;12670;53.502;10.252;2023-04-16T14:40:00;101935.50;;;12.35;94.58
16120;BME280;12670;53.502;10.252;2023-04-16T14:43:05;101941.88;;;12.29;94.89
16120;BME280;12670;53.502;10.252;2023-04-16T14:46:07;101945.19;;;12.37;95.09
16120;BME280;12670;53.502;10.252;2023-04-16T14:49:10;101945.59;;;12.23;94.47
16120;BME280;12670;53.502;10.252;2023-04-16T14:52:15;101945.72;;;12.19;93.31
16120;BME280;12670;53.502;10.252;2023-04-16T14:55:19;101938.47;;;12.24;93.67
16120;BME280;12670;53.502;10.252;2023-04-16T14:58:21;101946.56;;;12.19;95.31
16120;BME280;12670;53.502;10.252;2023-04-16T15:01:24;101946.91;;;12.09;93.57
16120;BME280;12670;53.502;10.252;2023-04-16T15:04:28;101943.56;;;12.02;92.65
16120;BME280;12670;53.502;10.252;2023-04-16T15:07:31;101941.63;;;12.07;94.35
16120;BME280;12670;53.502;10.252;2023-04-16T15:10:35;101952.63;;;12.26;93.29
16120;BME280;12670;53.502;10.252;2023-04-16T15:13:38;101947.94;;;12.34;93.06
16120;BME280;12670;53.502;10.252;2023-04-16T15:16:41;101948.66;;;12.39;91.48
16120;BME280;12670;53.502;10.252;2023-04-16T15:19:43;101945.81;;;12.16;92.75
16120;BME280;12670;53.502;10.252;2023-04-16T15:22:46;101949.13;;;12.24;94.83
16120;BME280;12670;53.502;10.252;2023-04-16T15:25:50;101949.63;;;12.37;92.36
16120;BME280;12670;53.502;10.252;2023-04-16T15:28:53;101946.88;;;12.40;90.73
16120;BME280;12670;53.502;10.252;2023-04-16T15:31:55;101952.28;;;12.37;91.05
16120;BME280;12670;53.502;10.252;2023-04-16T15:34:58;101952.50;;;12.29;92.04
16120;BME280;12670;53.502;10.252;2023-04-16T15:38:01;101955.66;;;12.14;93.60
16120;BME280;12670;53.502;10.252;2023-04-16T15:41:05;101959.94;;;12.18;91.96
16120;BME280;12670;53.502;10.252;2023-04-16T15:44:08;101965.00;;;12.27;92.73
16120;BME280;12670;53.502;10.252;2023-04-16T15:47:10;101961.59;;;12.22;91.47